AirNav   Duncan Aviation - Near you to keep you flying
 
 1563 users online  

WA29 La Center View-Air Airport
La Center, Washington, USA

GOING TO LA CENTER?


FAA INFORMATION EFFECTIVE 04 NOVEMBER 2021

Location

FAA Identifier: WA29
Lat/Long: 45-53-44.4080N 122-35-39.3620W
45-53.740133N 122-35.656033W
45.8956689,-122.5942672
(estimated)
Elevation: 811 ft. / 247 m (estimated)
Variation: 20E (1985)
From city: 3 miles NE of LA CENTER, WA
Time zone: UTC -7 (UTC -8 during Standard Time)
Zip code: 98629

Airport Operations

Airport use: Private use. Permission required prior to landing
Activation date: 10/1966
Control tower: no
ARTCC: SEATTLE CENTER
FSS: SEATTLE FLIGHT SERVICE STATION
Attendance: UNATNDD
Wind indicator: yes
Segmented circle: no

Airport Communications

WX ASOS at SPB (13 nm SW): 135.875 (503-543-6401)
WX ASOS at VUO (17 nm S): 135.125 (360-696-1280)
WX AWOS-3PT at KLS (18 nm NW): 135.075 (360-577-1964)
WX ASOS at PDX (18 nm S): PHONE (503) 493-7687

Nearby radio navigation aids

VOR radial/distance  VOR name  Freq  Var
BTGr338/8.9BATTLE GROUND VORTAC116.6021E
UBGr005/36.3NEWBERG VOR/DME117.4021E

 
NDB name  Hdg/Dist  Freq  Var  ID
BANKS034/24.735616EPND .--. -. -..

Airport Services

Airframe service: MINOR
Powerplant service: MINOR

Runway Information

Runway 9/27

Dimensions: 1700 x 60 ft. / 518 x 18 m
Surface: turf
RUNWAY 9  RUNWAY 27
Traffic pattern: leftleft
Obstructions: roadtrees

Airport Ownership and Management from official FAA records

Ownership: Privately-owned
Manager: MR ERIC P. HOPPE
10417 NE 337TH ST
LA CENTER, WA 98629
Phone 360-263-6691

Airport Operational Statistics

Aircraft based on the field: 4
Single engine airplanes: 4
    
Aircraft operations: 4/year
100% local general aviation

Additional Remarks

A30A-09 LAND TO THE EAST.
FOR CD CTC PORTLAND APCH AT 503-493-7545.
OBSTNS -- TREES E & W & PUB ROAD ON APCH LNDG TO THE E. 80 FT ELEV INCR W TO E & LNDG BY PRIOR PMSN ONLY OR DECLARED EMERG.

Instrument Procedures

There are no published instrument procedures at WA29.

Some nearby airports with instrument procedures:

KSPB - Scappoose Airport (13 nm SW)
KVUO - Pearson Field Airport (17 nm S)
KKLS - Southwest Washington Regional Airport (18 nm NW)
KPDX - Portland International Airport (18 nm S)
KTTD - Portland-Troutdale Airport (22 nm S)
 
Loc | Ops | Rwys | IFR | FBO | Links
Com | Nav | Svcs | Stats | Notes
Area around WA29 (La Center View-Air Airport)
 
Road maps at: MapQuest Bing Google
 
Aerial photo
No photo
 
Sectional chart

 
Airport distance calculator
Flying to La Center View-Air Airport? Find the distance to fly.

From to WA29

Sunrise and sunset
Times for 29-Nov-2021
 Local
(UTC-8)
 Zulu
(UTC)
Morning civil twilight06:5714:57
Sunrise07:3015:30
Sunset16:2700:27
Evening civil twilight17:0101:01

Current date and time
Zulu (UTC)  30-Nov-2021 01:15:46
Local (UTC-8)  29-Nov-2021 17:15:46
 
METAR
KSPB 
14nm SW 
300053Z AUTO 00000KT 10SM OVC009 13/12 A3027 RMK AO2 SLP250 T01330117
KVUO 
17nm S 
300053Z AUTO 00000KT OVC018 13/12 A3028 RMK AO2 SLP254 T01330122 $
KKLS 
18nm NW 
300056Z AUTO 15010KT 10SM SCT014 OVC050 13/12 A3026 RMK AO2 SLP252 T01330117
KPDX 
19nm S 
300053Z 12003KT 10SM FEW009 BKN017 OVC044 14/12 A3028 RMK AO2 SLP253 T01390117
KTTD 
22nm S 
300053Z 00000KT 10SM OVC017 14/12 A3028 RMK AO2 SLP252 T01390117
KHIO 
26nm SW 
300100Z 00000KT 10SM OVC016 13/12 A3028 RMK AO2 T01280122
TAF
KPDX 
19nm S 
292027Z 2920/3018 24004KT P6SM BKN012 OVC040 TEMPO 2920/2922 3SM -DZ SCT007 OVC011 FM292300 29005KT P6SM SCT025 BKN050 FM300800 13003KT P6SM BKN020 OVC050 FM301000 VRB02KT P6SM OVC012
KTTD 
22nm S 
292032Z 2921/3018 24004KT P6SM BKN015 OVC040 TEMPO 2920/2923 3SM -DZ SCT007 OVC011 FM300000 24003KT P6SM SCT025 BKN050 FM300800 10004KT P6SM BKN020 OVC050 FM301100 VRB02KT P6SM OVC015
NOTAMs
Click for the latest NOTAMs
NOTAMs are issued by the DoD/FAA and will open in a separate window not controlled by AirNav.

 

 
 

Would you like to see your business listed on this page?

 If your business provides an interesting product or service to pilots, flight crews, aircraft, or users of the La Center View-Air Airport, you should consider listing it here.  To start the listing process, click on the button below
 
Add a business
 

Other Pages about La Center View-Air Airport

Update a link
 
Copyright © AirNav, LLC. All rights reserved. Privacy Policy  Contact